sensor_id;sensor_type;location;lat;lon;timestamp;temperature;humidity
4509;DHT22;2267;48.816;9.230;2022-09-30T00:00:55;11.60;99.90
4509;DHT22;2267;48.816;9.230;2022-09-30T00:03:22;11.60;99.90
4509;DHT22;2267;48.816;9.230;2022-09-30T00:05:57;11.60;99.90
4509;DHT22;2267;48.816;9.230;2022-09-30T00:08:24;11.60;99.90
4509;DHT22;2267;48.816;9.230;2022-09-30T00:11:08;11.60;99.90
4509;DHT22;2267;48.816;9.230;2022-09-30T00:13:37;11.60;99.90
4509;DHT22;2267;48.816;9.230;2022-09-30T00:16:04;11.60;99.90
4509;DHT22;2267;48.816;9.230;2022-09-30T00:18:31;11.60;99.90
4509;DHT22;2267;48.816;9.230;2022-09-30T00:20:58;11.60;99.90
4509;DHT22;2267;48.816;9.230;2022-09-30T00:23:25;11.60;99.90
4509;DHT22;2267;48.816;9.230;2022-09-30T00:25:57;11.60;99.90
4509;DHT22;2267;48.816;9.230;2022-09-30T00:28:25;11.60;99.90
4509;DHT22;2267;48.816;9.230;2022-09-30T00:30:53;11.60;99.90
4509;DHT22;2267;48.816;9.230;2022-09-30T00:33:20;11.60;99.90
4509;DHT22;2267;48.816;9.230;2022-09-30T00:35:47;11.60;99.90
4509;DHT22;2267;48.816;9.230;2022-09-30T00:38:13;11.60;99.90
4509;DHT22;2267;48.816;9.230;2022-09-30T00:40:40;11.70;99.90
4509;DHT22;2267;48.816;9.230;2022-09-30T00:43:13;11.70;99.90
4509;DHT22;2267;48.816;9.230;2022-09-30T00:45:48;11.70;99.90
4509;DHT22;2267;48.816;9.230;2022-09-30T00:48:20;11.70;99.90
4509;DHT22;2267;48.816;9.230;2022-09-30T00:50:49;11.70;99.90
4509;DHT22;2267;48.816;9.230;2022-09-30T00:56:06;11.70;99.90
4509;DHT22;2267;48.816;9.230;2022-09-30T00:58:46;11.60;99.90
4509;DHT22;2267;48.816;9.230;2022-09-30T01:01:14;11.60;99.90
4509;DHT22;2267;48.816;9.230;2022-09-30T01:03:44;11.60;99.90
4509;DHT22;2267;48.816;9.230;2022-09-30T01:06:16;11.60;99.90
4509;DHT22;2267;48.816;9.230;2022-09-30T01:08:44;11.60;99.90
4509;DHT22;2267;48.816;9.230;2022-09-30T01:11:12;11.60;99.90
4509;DHT22;2267;48.816;9.230;2022-09-30T01:13:41;11.60;99.90
4509;DHT22;2267;48.816;9.230;2022-09-30T01:17:12;11.60;99.90
4509;DHT22;2267;48.816;9.230;2022-09-30T01:19:35;11.60;99.90
4509;DHT22;2267;48.816;9.230;2022-09-30T01:22:11;11.60;99.90
4509;DHT22;2267;48.816;9.230;2022-09-30T01:28:17;11.60;99.90
4509;DHT22;2267;48.816;9.230;2022-09-30T01:36:03;11.60;99.90
4509;DHT22;2267;48.816;9.230;2022-09-30T01:38:49;11.60;99.90
4509;DHT22;2267;48.816;9.230;2022-09-30T01:44:37;11.60;99.90
4509;DHT22;2267;48.816;9.230;2022-09-30T01:47:24;11.60;99.90
4509;DHT22;2267;48.816;9.230;2022-09-30T01:50:19;11.60;99.90
4509;DHT22;2267;48.816;9.230;2022-09-30T01:53:02;11.60;99.90
4509;DHT22;2267;48.816;9.230;2022-09-30T01:55:40;11.60;99.90
4509;DHT22;2267;48.816;9.230;2022-09-30T02:01:01;11.60;99.90
4509;DHT22;2267;48.816;9.230;2022-09-30T02:03:38;11.60;99.90
4509;DHT22;2267;48.816;9.230;2022-09-30T02:06:11;11.60;99.90
4509;DHT22;2267;48.816;9.230;2022-09-30T02:08:49;11.60;99.90
4509;DHT22;2267;48.816;9.230;2022-09-30T02:11:27;11.60;99.90
4509;DHT22;2267;48.816;9.230;2022-09-30T02:16:33;11.60;99.90
4509;DHT22;2267;48.816;9.230;2022-09-30T02:19:18;11.60;99.90
4509;DHT22;2267;48.816;9.230;2022-09-30T02:21:55;11.50;99.90
4509;DHT22;2267;48.816;9.230;2022-09-30T02:24:24;11.50;99.90
4509;DHT22;2267;48.816;9.230;2022-09-30T02:26:54;11.50;99.90
4509;DHT22;2267;48.816;9.230;2022-09-30T02:29:28;11.50;99.90
4509;DHT22;2267;48.816;9.230;2022-09-30T02:32:00;11.50;99.90
4509;DHT22;2267;48.816;9.230;2022-09-30T02:34:32;11.50;99.90
4509;DHT22;2267;48.816;9.230;2022-09-30T02:37:05;11.50;99.90
4509;DHT22;2267;48.816;9.230;2022-09-30T02:42:13;11.50;99.90
4509;DHT22;2267;48.816;9.230;2022-09-30T02:44:41;11.50;99.90
4509;DHT22;2267;48.816;9.230;2022-09-30T02:49:51;11.40;99.90
4509;DHT22;2267;48.816;9.230;2022-09-30T02:52:59;11.40;99.90
4509;DHT22;2267;48.816;9.230;2022-09-30T02:55:38;11.40;99.90
4509;DHT22;2267;48.816;9.230;2022-09-30T02:58:16;11.40;99.90
4509;DHT22;2267;48.816;9.230;2022-09-30T03:00:42;11.30;99.90
4509;DHT22;2267;48.816;9.230;2022-09-30T03:03:19;11.30;99.90
4509;DHT22;2267;48.816;9.230;2022-09-30T03:05:48;11.30;99.90
4509;DHT22;2267;48.816;9.230;2022-09-30T03:08:16;11.30;99.90
4509;DHT22;2267;48.816;9.230;2022-09-30T03:10:43;11.30;99.90
4509;DHT22;2267;48.816;9.230;2022-09-30T03:13:24;11.30;99.90
4509;DHT22;2267;48.816;9.230;2022-09-30T03:16:18;11.30;99.90
4509;DHT22;2267;48.816;9.230;2022-09-30T03:22:16;11.20;99.90
4509;DHT22;2267;48.816;9.230;2022-09-30T03:27:49;11.20;99.90
4509;DHT22;2267;48.816;9.230;2022-09-30T03:30:23;11.20;99.90
4509;DHT22;2267;48.816;9.230;2022-09-30T03:33:15;11.20;99.90
4509;DHT22;2267;48.816;9.230;2022-09-30T03:36:14;11.20;99.90
4509;DHT22;2267;48.816;9.230;2022-09-30T03:44:06;11.10;99.90
4509;DHT22;2267;48.816;9.230;2022-09-30T03:49:10;11.00;99.90
4509;DHT22;2267;48.816;9.230;2022-09-30T03:51:39;11.00;99.90
4509;DHT22;2267;48.816;9.230;2022-09-30T03:54:11;11.00;99.90
4509;DHT22;2267;48.816;9.230;2022-09-30T03:56:39;11.00;99.90
4509;DHT22;2267;48.816;9.230;2022-09-30T03:59:18;11.00;99.90
4509;DHT22;2267;48.816;9.230;2022-09-30T04:01:48;11.00;99.90
4509;DHT22;2267;48.816;9.230;2022-09-30T04:04:15;10.90;99.90
4509;DHT22;2267;48.816;9.230;2022-09-30T04:06:42;10.90;99.90
4509;DHT22;2267;48.816;9.230;2022-09-30T04:09:09;10.90;99.90
4509;DHT22;2267;48.816;9.230;2022-09-30T04:11:36;10.80;99.90
4509;DHT22;2267;48.816;9.230;2022-09-30T04:14:03;10.80;99.90
4509;DHT22;2267;48.816;9.230;2022-09-30T04:16:31;10.80;99.90
4509;DHT22;2267;48.816;9.230;2022-09-30T04:18:58;10.80;99.90
4509;DHT22;2267;48.816;9.230;2022-09-30T04:21:25;10.80;99.90
4509;DHT22;2267;48.816;9.230;2022-09-30T04:23:54;10.80;99.90
4509;DHT22;2267;48.816;9.230;2022-09-30T04:26:21;10.80;99.90
4509;DHT22;2267;48.816;9.230;2022-09-30T04:28:48;10.80;99.90
4509;DHT22;2267;48.816;9.230;2022-09-30T04:31:15;10.80;99.90
4509;DHT22;2267;48.816;9.230;2022-09-30T04:33:44;10.70;99.90
4509;DHT22;2267;48.816;9.230;2022-09-30T04:36:11;10.70;99.90
4509;DHT22;2267;48.816;9.230;2022-09-30T04:38:38;10.70;99.90
4509;DHT22;2267;48.816;9.230;2022-09-30T04:41:05;10.70;99.90
4509;DHT22;2267;48.816;9.230;2022-09-30T04:43:33;10.70;99.90
4509;DHT22;2267;48.816;9.230;2022-09-30T04:46:00;10.70;99.90
4509;DHT22;2267;48.816;9.230;2022-09-30T04:48:27;10.60;99.90
4509;DHT22;2267;48.816;9.230;2022-09-30T04:50:57;10.60;99.90
4509;DHT22;2267;48.816;9.230;2022-09-30T04:53:24;10.60;99.90
4509;DHT22;2267;48.816;9.230;2022-09-30T04:55:57;10.60;99.90
4509;DHT22;2267;48.816;9.230;2022-09-30T04:58:25;10.50;99.90
4509;DHT22;2267;48.816;9.230;2022-09-30T05:01:03;10.50;99.90
4509;DHT22;2267;48.816;9.230;2022-09-30T05:03:30;10.50;99.90
4509;DHT22;2267;48.816;9.230;2022-09-30T05:05:57;10.40;99.90
4509;DHT22;2267;48.816;9.230;2022-09-30T05:08:23;10.40;99.90
4509;DHT22;2267;48.816;9.230;2022-09-30T05:10:58;10.40;99.90
4509;DHT22;2267;48.816;9.230;2022-09-30T05:13:29;10.40;99.90
4509;DHT22;2267;48.816;9.230;2022-09-30T05:15:57;10.30;99.90
4509;DHT22;2267;48.816;9.230;2022-09-30T05:18:24;10.30;99.90
4509;DHT22;2267;48.816;9.230;2022-09-30T05:20:55;10.30;99.90
4509;DHT22;2267;48.816;9.230;2022-09-30T05:23:27;10.30;99.90
4509;DHT22;2267;48.816;9.230;2022-09-30T05:25:56;10.30;99.90
4509;DHT22;2267;48.816;9.230;2022-09-30T05:28:23;10.30;99.90
4509;DHT22;2267;48.816;9.230;2022-09-30T05:31:02;10.30;99.90
4509;DHT22;2267;48.816;9.230;2022-09-30T05:33:32;10.30;99.90
4509;DHT22;2267;48.816;9.230;2022-09-30T05:36:01;10.30;99.90
4509;DHT22;2267;48.816;9.230;2022-09-30T05:38:28;10.30;99.90
4509;DHT22;2267;48.816;9.230;2022-09-30T05:40:55;10.20;99.90
4509;DHT22;2267;48.816;9.230;2022-09-30T05:43:22;10.30;99.90
4509;DHT22;2267;48.816;9.230;2022-09-30T05:45:53;10.30;99.90
4509;DHT22;2267;48.816;9.230;2022-09-30T05:48:21;10.30;99.90
4509;DHT22;2267;48.816;9.230;2022-09-30T05:50:48;10.20;99.90
4509;DHT22;2267;48.816;9.230;2022-09-30T05:53:19;10.20;99.90
4509;DHT22;2267;48.816;9.230;2022-09-30T05:55:47;10.20;99.90
4509;DHT22;2267;48.816;9.230;2022-09-30T05:58:14;10.20;99.90
4509;DHT22;2267;48.816;9.230;2022-09-30T06:00:42;10.20;99.90
4509;DHT22;2267;48.816;9.230;2022-09-30T06:03:09;10.20;99.90
4509;DHT22;2267;48.816;9.230;2022-09-30T06:05:36;10.20;99.90
4509;DHT22;2267;48.816;9.230;2022-09-30T06:08:03;10.30;99.90
4509;DHT22;2267;48.816;9.230;2022-09-30T06:10:33;10.30;99.90
4509;DHT22;2267;48.816;9.230;2022-09-30T06:13:04;10.30;99.90
4509;DHT22;2267;48.816;9.230;2022-09-30T06:15:30;10.30;99.90
4509;DHT22;2267;48.816;9.230;2022-09-30T06:17:57;10.30;99.90
4509;DHT22;2267;48.816;9.230;2022-09-30T06:20:24;10.40;99.90
4509;DHT22;2267;48.816;9.230;2022-09-30T06:22:51;10.40;99.90
4509;DHT22;2267;48.816;9.230;2022-09-30T06:25:18;10.40;99.90
4509;DHT22;2267;48.816;9.230;2022-09-30T06:27:45;10.40;99.90
4509;DHT22;2267;48.816;9.230;2022-09-30T06:30:13;10.40;99.90
4509;DHT22;2267;48.816;9.230;2022-09-30T06:32:40;10.50;99.90
4509;DHT22;2267;48.816;9.230;2022-09-30T06:35:08;10.50;99.90
4509;DHT22;2267;48.816;9.230;2022-09-30T06:37:35;10.60;99.90
4509;DHT22;2267;48.816;9.230;2022-09-30T06:40:04;10.60;99.90
4509;DHT22;2267;48.816;9.230;2022-09-30T06:42:31;10.70;99.90
4509;DHT22;2267;48.816;9.230;2022-09-30T06:44:59;10.70;99.90
4509;DHT22;2267;48.816;9.230;2022-09-30T06:47:25;10.70;99.90
4509;DHT22;2267;48.816;9.230;2022-09-30T06:49:52;10.70;99.90
4509;DHT22;2267;48.816;9.230;2022-09-30T06:52:25;10.70;99.90
4509;DHT22;2267;48.816;9.230;2022-09-30T06:54:52;10.70;99.90
4509;DHT22;2267;48.816;9.230;2022-09-30T06:57:23;10.80;99.90
4509;DHT22;2267;48.816;9.230;2022-09-30T06:59:52;10.80;99.90
4509;DHT22;2267;48.816;9.230;2022-09-30T07:02:20;10.80;99.90
4509;DHT22;2267;48.816;9.230;2022-09-30T07:04:47;10.80;99.90
4509;DHT22;2267;48.816;9.230;2022-09-30T07:07:14;10.80;99.90
4509;DHT22;2267;48.816;9.230;2022-09-30T07:09:41;10.70;99.90
4509;DHT22;2267;48.816;9.230;2022-09-30T07:12:09;10.70;99.90
4509;DHT22;2267;48.816;9.230;2022-09-30T07:14:35;10.70;99.90
4509;DHT22;2267;48.816;9.230;2022-09-30T07:17:03;10.70;99.90
4509;DHT22;2267;48.816;9.230;2022-09-30T07:19:32;10.70;99.90
4509;DHT22;2267;48.816;9.230;2022-09-30T07:22:00;10.70;99.90
4509;DHT22;2267;48.816;9.230;2022-09-30T07:24:47;10.70;99.90
4509;DHT22;2267;48.816;9.230;2022-09-30T07:27:14;10.70;99.90
4509;DHT22;2267;48.816;9.230;2022-09-30T07:29:41;10.70;99.90
4509;DHT22;2267;48.816;9.230;2022-09-30T07:32:29;10.80;99.90
4509;DHT22;2267;48.816;9.230;2022-09-30T07:34:56;10.80;99.90
4509;DHT22;2267;48.816;9.230;2022-09-30T07:37:24;10.80;99.90
4509;DHT22;2267;48.816;9.230;2022-09-30T07:39:52;10.80;99.90
4509;DHT22;2267;48.816;9.230;2022-09-30T07:42:19;10.90;99.90
4509;DHT22;2267;48.816;9.230;2022-09-30T07:44:49;10.90;99.90
4509;DHT22;2267;48.816;9.230;2022-09-30T07:47:18;11.00;99.90
4509;DHT22;2267;48.816;9.230;2022-09-30T07:49:45;11.00;99.90
4509;DHT22;2267;48.816;9.230;2022-09-30T07:52:12;11.00;99.90
4509;DHT22;2267;48.816;9.230;2022-09-30T07:54:40;11.10;99.90
4509;DHT22;2267;48.816;9.230;2022-09-30T07:57:15;11.10;99.90
4509;DHT22;2267;48.816;9.230;2022-09-30T07:59:42;11.10;99.90
4509;DHT22;2267;48.816;9.230;2022-09-30T08:02:17;11.20;99.90
4509;DHT22;2267;48.816;9.230;2022-09-30T08:04:45;11.20;99.90
4509;DHT22;2267;48.816;9.230;2022-09-30T08:07:14;11.30;99.90
4509;DHT22;2267;48.816;9.230;2022-09-30T08:09:41;11.30;99.90
4509;DHT22;2267;48.816;9.230;2022-09-30T08:12:08;11.30;99.90
4509;DHT22;2267;48.816;9.230;2022-09-30T08:14:35;11.30;99.90
4509;DHT22;2267;48.816;9.230;2022-09-30T08:17:02;11.30;99.90
4509;DHT22;2267;48.816;9.230;2022-09-30T08:19:29;11.30;99.90
4509;DHT22;2267;48.816;9.230;2022-09-30T08:21:57;11.40;99.90
4509;DHT22;2267;48.816;9.230;2022-09-30T08:24:25;11.40;99.90
4509;DHT22;2267;48.816;9.230;2022-09-30T08:26:53;11.40;99.90
4509;DHT22;2267;48.816;9.230;2022-09-30T08:29:20;11.50;99.90
4509;DHT22;2267;48.816;9.230;2022-09-30T08:32:07;11.50;99.90
4509;DHT22;2267;48.816;9.230;2022-09-30T08:34:34;11.60;99.90
4509;DHT22;2267;48.816;9.230;2022-09-30T08:37:02;11.70;99.90
4509;DHT22;2267;48.816;9.230;2022-09-30T08:39:35;11.70;99.90
4509;DHT22;2267;48.816;9.230;2022-09-30T08:53:09;12.10;99.90
4509;DHT22;2267;48.816;9.230;2022-09-30T08:55:43;12.10;99.90
4509;DHT22;2267;48.816;9.230;2022-09-30T08:58:27;12.20;99.90
4509;DHT22;2267;48.816;9.230;2022-09-30T09:01:09;12.20;99.90
4509;DHT22;2267;48.816;9.230;2022-09-30T09:03:41;12.30;99.90
4509;DHT22;2267;48.816;9.230;2022-09-30T09:06:24;12.30;99.90
4509;DHT22;2267;48.816;9.230;2022-09-30T09:09:14;12.40;99.90
4509;DHT22;2267;48.816;9.230;2022-09-30T09:12:44;12.60;99.90
4509;DHT22;2267;48.816;9.230;2022-09-30T09:20:38;13.00;99.90
4509;DHT22;2267;48.816;9.230;2022-09-30T09:23:09;13.20;99.90
4509;DHT22;2267;48.816;9.230;2022-09-30T09:25:38;13.30;99.90
4509;DHT22;2267;48.816;9.230;2022-09-30T09:31:13;13.50;99.90
4509;DHT22;2267;48.816;9.230;2022-09-30T09:33:42;13.60;99.90
4509;DHT22;2267;48.816;9.230;2022-09-30T09:41:45;13.90;99.90
4509;DHT22;2267;48.816;9.230;2022-09-30T09:47:00;14.00;99.90
4509;DHT22;2267;48.816;9.230;2022-09-30T09:49:33;14.20;99.90
4509;DHT22;2267;48.816;9.230;2022-09-30T09:54:44;14.30;99.90
4509;DHT22;2267;48.816;9.230;2022-09-30T09:57:16;14.40;99.90
4509;DHT22;2267;48.816;9.230;2022-09-30T10:00:05;14.50;99.90
4509;DHT22;2267;48.816;9.230;2022-09-30T10:03:01;14.70;99.90
4509;DHT22;2267;48.816;9.230;2022-09-30T10:05:33;14.90;99.90
4509;DHT22;2267;48.816;9.230;2022-09-30T10:08:15;15.00;99.90
4509;DHT22;2267;48.816;9.230;2022-09-30T10:10:47;15.10;99.90
4509;DHT22;2267;48.816;9.230;2022-09-30T10:13:16;15.20;99.90
4509;DHT22;2267;48.816;9.230;2022-09-30T10:15:43;15.40;99.90
4509;DHT22;2267;48.816;9.230;2022-09-30T10:18:21;15.50;99.90
4509;DHT22;2267;48.816;9.230;2022-09-30T10:20:52;15.60;99.90
4509;DHT22;2267;48.816;9.230;2022-09-30T10:25:57;16.00;99.90
4509;DHT22;2267;48.816;9.230;2022-09-30T10:28:30;16.20;99.90
4509;DHT22;2267;48.816;9.230;2022-09-30T10:31:01;16.40;99.90
4509;DHT22;2267;48.816;9.230;2022-09-30T10:33:52;16.60;99.90
4509;DHT22;2267;48.816;9.230;2022-09-30T10:36:35;16.80;99.90
4509;DHT22;2267;48.816;9.230;2022-09-30T10:41:36;16.90;97.90
4509;DHT22;2267;48.816;9.230;2022-09-30T10:44:06;17.00;97.80
4509;DHT22;2267;48.816;9.230;2022-09-30T10:46:39;17.10;97.40
4509;DHT22;2267;48.816;9.230;2022-09-30T10:49:43;17.10;97.10
4509;DHT22;2267;48.816;9.230;2022-09-30T10:52:26;17.40;97.40
4509;DHT22;2267;48.816;9.230;2022-09-30T10:54:55;17.60;97.10
4509;DHT22;2267;48.816;9.230;2022-09-30T10:57:33;17.80;96.60
4509;DHT22;2267;48.816;9.230;2022-09-30T11:05:06;17.90;95.20
4509;DHT22;2267;48.816;9.230;2022-09-30T11:10:58;18.10;95.10
4509;DHT22;2267;48.816;9.230;2022-09-30T11:19:20;18.30;94.20
4509;DHT22;2267;48.816;9.230;2022-09-30T11:24:35;18.70;94.30
4509;DHT22;2267;48.816;9.230;2022-09-30T11:27:17;18.80;93.80
4509;DHT22;2267;48.816;9.230;2022-09-30T11:32:57;19.20;93.60
4509;DHT22;2267;48.816;9.230;2022-09-30T11:44:25;19.80;91.30
4509;DHT22;2267;48.816;9.230;2022-09-30T11:58:40;20.60;90.10
4509;DHT22;2267;48.816;9.230;2022-09-30T12:01:41;20.60;88.20
4509;DHT22;2267;48.816;9.230;2022-09-30T12:04:19;20.30;86.40
4509;DHT22;2267;48.816;9.230;2022-09-30T12:07:03;20.40;86.40
4509;DHT22;2267;48.816;9.230;2022-09-30T12:09:45;20.60;86.50
4509;DHT22;2267;48.816;9.230;2022-09-30T12:12:16;20.50;85.40
4509;DHT22;2267;48.816;9.230;2022-09-30T12:14:50;20.20;86.00
4509;DHT22;2267;48.816;9.230;2022-09-30T12:17:44;20.20;84.40
4509;DHT22;2267;48.816;9.230;2022-09-30T12:25:56;20.60;82.30
4509;DHT22;2267;48.816;9.230;2022-09-30T12:47:54;19.10;83.10
4509;DHT22;2267;48.816;9.230;2022-09-30T12:50:26;19.00;84.00
4509;DHT22;2267;48.816;9.230;2022-09-30T12:52:55;18.90;84.20
4509;DHT22;2267;48.816;9.230;2022-09-30T12:55:25;18.70;84.30
4509;DHT22;2267;48.816;9.230;2022-09-30T12:57:54;18.70;85.40
4509;DHT22;2267;48.816;9.230;2022-09-30T13:00:24;19.00;86.30
4509;DHT22;2267;48.816;9.230;2022-09-30T13:03:05;19.00;85.80
4509;DHT22;2267;48.816;9.230;2022-09-30T13:13:30;18.90;84.80
4509;DHT22;2267;48.816;9.230;2022-09-30T13:16:00;18.90;85.50
4509;DHT22;2267;48.816;9.230;2022-09-30T13:23:54;19.40;84.80
4509;DHT22;2267;48.816;9.230;2022-09-30T13:26:31;19.30;83.60
4509;DHT22;2267;48.816;9.230;2022-09-30T13:34:28;19.40;81.90
4509;DHT22;2267;48.816;9.230;2022-09-30T13:37:03;19.40;82.00
4509;DHT22;2267;48.816;9.230;2022-09-30T13:42:28;19.20;83.00
4509;DHT22;2267;48.816;9.230;2022-09-30T13:45:14;19.10;83.00
4509;DHT22;2267;48.816;9.230;2022-09-30T13:52:52;18.90;83.30
4509;DHT22;2267;48.816;9.230;2022-09-30T13:55:24;18.90;82.90
4509;DHT22;2267;48.816;9.230;2022-09-30T14:09:51;19.20;81.90
4509;DHT22;2267;48.816;9.230;2022-09-30T14:23:17;18.80;83.00
4509;DHT22;2267;48.816;9.230;2022-09-30T14:31:19;18.50;83.20
4509;DHT22;2267;48.816;9.230;2022-09-30T14:33:48;18.50;83.10
4509;DHT22;2267;48.816;9.230;2022-09-30T14:36:19;18.50;83.70
4509;DHT22;2267;48.816;9.230;2022-09-30T14:38:56;18.40;83.90
4509;DHT22;2267;48.816;9.230;2022-09-30T14:41:25;18.30;84.80
4509;DHT22;2267;48.816;9.230;2022-09-30T14:43:57;18.30;85.40
4509;DHT22;2267;48.816;9.230;2022-09-30T14:46:40;18.20;85.80
4509;DHT22;2267;48.816;9.230;2022-09-30T14:49:12;18.20;86.30
4509;DHT22;2267;48.816;9.230;2022-09-30T14:51:43;18.20;85.60
4509;DHT22;2267;48.816;9.230;2022-09-30T14:54:19;18.20;85.50
4509;DHT22;2267;48.816;9.230;2022-09-30T14:56:47;18.20;85.60
4509;DHT22;2267;48.816;9.230;2022-09-30T14:59:20;18.10;85.60
4509;DHT22;2267;48.816;9.230;2022-09-30T15:01:50;18.10;85.50
4509;DHT22;2267;48.816;9.230;2022-09-30T15:04:29;18.10;85.10
4509;DHT22;2267;48.816;9.230;2022-09-30T15:06:58;18.10;84.80
4509;DHT22;2267;48.816;9.230;2022-09-30T15:09:40;18.00;85.00
4509;DHT22;2267;48.816;9.230;2022-09-30T15:12:15;18.00;85.40
4509;DHT22;2267;48.816;9.230;2022-09-30T15:14:48;18.00;84.90
4509;DHT22;2267;48.816;9.230;2022-09-30T15:17:20;18.00;84.30
4509;DHT22;2267;48.816;9.230;2022-09-30T15:19:47;17.90;84.80
4509;DHT22;2267;48.816;9.230;2022-09-30T15:22:16;17.90;84.60
4509;DHT22;2267;48.816;9.230;2022-09-30T15:24:44;17.90;85.00
4509;DHT22;2267;48.816;9.230;2022-09-30T15:27:21;17.80;85.00
4509;DHT22;2267;48.816;9.230;2022-09-30T15:30:00;17.80;85.10
4509;DHT22;2267;48.816;9.230;2022-09-30T15:32:30;17.70;84.70
4509;DHT22;2267;48.816;9.230;2022-09-30T15:35:18;17.70;85.00
4509;DHT22;2267;48.816;9.230;2022-09-30T15:37:47;17.70;84.70
4509;DHT22;2267;48.816;9.230;2022-09-30T15:40:17;17.60;84.40
4509;DHT22;2267;48.816;9.230;2022-09-30T15:43:10;17.60;84.10
4509;DHT22;2267;48.816;9.230;2022-09-30T15:45:45;17.50;84.50
4509;DHT22;2267;48.816;9.230;2022-09-30T15:50:57;17.50;84.00
4509;DHT22;2267;48.816;9.230;2022-09-30T15:53:44;17.40;81.40
4509;DHT22;2267;48.816;9.230;2022-09-30T15:59:02;17.30;84.30
4509;DHT22;2267;48.816;9.230;2022-09-30T16:01:43;17.30;84.60
4509;DHT22;2267;48.816;9.230;2022-09-30T16:04:22;17.30;84.70
4509;DHT22;2267;48.816;9.230;2022-09-30T16:12:14;17.20;84.80
4509;DHT22;2267;48.816;9.230;2022-09-30T16:17:18;17.20;85.00
4509;DHT22;2267;48.816;9.230;2022-09-30T16:20:01;17.20;85.00
4509;DHT22;2267;48.816;9.230;2022-09-30T16:27:37;17.00;85.90
4509;DHT22;2267;48.816;9.230;2022-09-30T16:30:04;17.00;86.30
4509;DHT22;2267;48.816;9.230;2022-09-30T16:32:36;17.00;86.40
4509;DHT22;2267;48.816;9.230;2022-09-30T16:35:04;16.90;86.50
4509;DHT22;2267;48.816;9.230;2022-09-30T16:37:31;16.90;86.90
4509;DHT22;2267;48.816;9.230;2022-09-30T16:40:05;16.90;93.20
4509;DHT22;2267;48.816;9.230;2022-09-30T16:42:35;17.10;95.30
4509;DHT22;2267;48.816;9.230;2022-09-30T16:45:02;17.20;93.20
4509;DHT22;2267;48.816;9.230;2022-09-30T16:47:29;17.40;94.00
4509;DHT22;2267;48.816;9.230;2022-09-30T16:49:56;17.50;92.50
4509;DHT22;2267;48.816;9.230;2022-09-30T16:52:24;17.50;92.70
4509;DHT22;2267;48.816;9.230;2022-09-30T16:54:51;17.60;93.20
4509;DHT22;2267;48.816;9.230;2022-09-30T16:57:18;17.70;91.50
4509;DHT22;2267;48.816;9.230;2022-09-30T16:59:44;17.60;91.20
4509;DHT22;2267;48.816;9.230;2022-09-30T17:02:13;17.40;91.30
4509;DHT22;2267;48.816;9.230;2022-09-30T17:04:40;17.20;91.60
4509;DHT22;2267;48.816;9.230;2022-09-30T17:07:10;17.10;91.80
4509;DHT22;2267;48.816;9.230;2022-09-30T17:09:37;16.90;92.20
4509;DHT22;2267;48.816;9.230;2022-09-30T17:12:05;16.80;92.30
4509;DHT22;2267;48.816;9.230;2022-09-30T17:14:31;16.70;92.70
4509;DHT22;2267;48.816;9.230;2022-09-30T17:16:58;16.50;92.90
4509;DHT22;2267;48.816;9.230;2022-09-30T17:19:26;16.40;93.30
4509;DHT22;2267;48.816;9.230;2022-09-30T17:21:55;16.30;93.70
4509;DHT22;2267;48.816;9.230;2022-09-30T17:24:22;16.20;94.00
4509;DHT22;2267;48.816;9.230;2022-09-30T17:26:48;16.20;94.10
4509;DHT22;2267;48.816;9.230;2022-09-30T17:29:16;16.10;94.00
4509;DHT22;2267;48.816;9.230;2022-09-30T17:31:58;16.10;94.30
4509;DHT22;2267;48.816;9.230;2022-09-30T17:34:25;16.00;94.00
4509;DHT22;2267;48.816;9.230;2022-09-30T17:36:53;16.00;93.80
4509;DHT22;2267;48.816;9.230;2022-09-30T17:39:24;15.90;93.80
4509;DHT22;2267;48.816;9.230;2022-09-30T17:41:50;15.80;93.80
4509;DHT22;2267;48.816;9.230;2022-09-30T17:44:36;15.80;94.00
4509;DHT22;2267;48.816;9.230;2022-09-30T17:47:04;15.70;94.10
4509;DHT22;2267;48.816;9.230;2022-09-30T17:49:35;15.60;94.40
4509;DHT22;2267;48.816;9.230;2022-09-30T17:52:02;15.60;94.60
4509;DHT22;2267;48.816;9.230;2022-09-30T17:54:29;15.50;94.90
4509;DHT22;2267;48.816;9.230;2022-09-30T17:56:57;15.50;95.30
4509;DHT22;2267;48.816;9.230;2022-09-30T17:59:24;15.40;95.30
4509;DHT22;2267;48.816;9.230;2022-09-30T18:01:52;15.40;95.60
4509;DHT22;2267;48.816;9.230;2022-09-30T18:04:22;15.30;95.70
4509;DHT22;2267;48.816;9.230;2022-09-30T18:06:52;15.30;96.10
4509;DHT22;2267;48.816;9.230;2022-09-30T18:09:20;15.20;96.20
4509;DHT22;2267;48.816;9.230;2022-09-30T18:11:47;15.20;96.00
4509;DHT22;2267;48.816;9.230;2022-09-30T18:14:14;15.20;96.50
4509;DHT22;2267;48.816;9.230;2022-09-30T18:16:41;15.10;96.70
4509;DHT22;2267;48.816;9.230;2022-09-30T18:19:08;15.10;96.80
4509;DHT22;2267;48.816;9.230;2022-09-30T18:21:36;15.10;97.00
4509;DHT22;2267;48.816;9.230;2022-09-30T18:24:06;15.00;97.20
4509;DHT22;2267;48.816;9.230;2022-09-30T18:26:33;15.00;97.20
4509;DHT22;2267;48.816;9.230;2022-09-30T18:29:02;14.90;97.30
4509;DHT22;2267;48.816;9.230;2022-09-30T18:31:29;14.90;97.30
4509;DHT22;2267;48.816;9.230;2022-09-30T18:34:05;14.80;97.50
4509;DHT22;2267;48.816;9.230;2022-09-30T18:36:32;14.80;97.50
4509;DHT22;2267;48.816;9.230;2022-09-30T18:38:59;14.80;97.70
4509;DHT22;2267;48.816;9.230;2022-09-30T18:41:28;14.70;97.60
4509;DHT22;2267;48.816;9.230;2022-09-30T18:43:57;14.70;97.60
4509;DHT22;2267;48.816;9.230;2022-09-30T18:46:29;14.70;97.60
4509;DHT22;2267;48.816;9.230;2022-09-30T18:48:56;14.60;97.60
4509;DHT22;2267;48.816;9.230;2022-09-30T18:51:23;14.60;97.70
4509;DHT22;2267;48.816;9.230;2022-09-30T18:53:52;14.60;97.70
4509;DHT22;2267;48.816;9.230;2022-09-30T18:56:21;14.50;97.80
4509;DHT22;2267;48.816;9.230;2022-09-30T18:58:49;14.50;97.70
4509;DHT22;2267;48.816;9.230;2022-09-30T19:01:17;14.50;97.80
4509;DHT22;2267;48.816;9.230;2022-09-30T19:03:45;14.40;97.70
4509;DHT22;2267;48.816;9.230;2022-09-30T19:06:11;14.40;97.80
4509;DHT22;2267;48.816;9.230;2022-09-30T19:08:38;14.40;97.80
4509;DHT22;2267;48.816;9.230;2022-09-30T19:11:06;14.30;97.90
4509;DHT22;2267;48.816;9.230;2022-09-30T19:13:42;14.30;98.30
4509;DHT22;2267;48.816;9.230;2022-09-30T19:16:10;14.30;98.40
4509;DHT22;2267;48.816;9.230;2022-09-30T19:18:39;14.30;98.50
4509;DHT22;2267;48.816;9.230;2022-09-30T19:21:08;14.20;98.70
4509;DHT22;2267;48.816;9.230;2022-09-30T19:23:39;14.20;98.70
4509;DHT22;2267;48.816;9.230;2022-09-30T19:26:06;14.20;98.70
4509;DHT22;2267;48.816;9.230;2022-09-30T19:28:33;14.10;98.70
4509;DHT22;2267;48.816;9.230;2022-09-30T19:31:09;14.10;98.70
4509;DHT22;2267;48.816;9.230;2022-09-30T19:33:39;14.10;98.90
4509;DHT22;2267;48.816;9.230;2022-09-30T19:36:19;14.00;98.90
4509;DHT22;2267;48.816;9.230;2022-09-30T19:38:46;14.00;98.90
4509;DHT22;2267;48.816;9.230;2022-09-30T19:41:14;14.00;98.80
4509;DHT22;2267;48.816;9.230;2022-09-30T19:43:42;13.90;98.80
4509;DHT22;2267;48.816;9.230;2022-09-30T19:46:12;13.90;98.80
4509;DHT22;2267;48.816;9.230;2022-09-30T19:48:40;13.90;98.80
4509;DHT22;2267;48.816;9.230;2022-09-30T19:51:12;13.80;98.80
4509;DHT22;2267;48.816;9.230;2022-09-30T19:53:41;13.80;98.80
4509;DHT22;2267;48.816;9.230;2022-09-30T19:56:14;13.80;98.90
4509;DHT22;2267;48.816;9.230;2022-09-30T19:58:47;13.70;98.90
4509;DHT22;2267;48.816;9.230;2022-09-30T20:01:16;13.70;98.90
4509;DHT22;2267;48.816;9.230;2022-09-30T20:03:43;13.60;99.10
4509;DHT22;2267;48.816;9.230;2022-09-30T20:06:13;13.60;99.40